createdAt,value
2023-05-20T00:00:32.854Z,14.98
2023-05-20T00:01:37.738Z,14.97
2023-05-20T00:02:44.095Z,14.98
2023-05-20T00:03:49.218Z,14.99
2023-05-20T00:04:54.730Z,14.98
2023-05-20T00:05:58.975Z,15.00
2023-05-20T00:07:02.906Z,14.99
2023-05-20T00:08:10.238Z,15.01
2023-05-20T00:09:13.861Z,15.02
2023-05-20T00:10:18.107Z,15.01
2023-05-20T00:11:21.568Z,15.02
2023-05-20T00:12:25.774Z,15.02
2023-05-20T00:13:29.352Z,15.01
2023-05-20T00:14:33.694Z,14.99
2023-05-20T00:15:37.619Z,14.97
2023-05-20T00:16:43.226Z,14.94
2023-05-20T00:17:47.456Z,14.91
2023-05-20T00:18:51.820Z,14.88
2023-05-20T00:19:56.577Z,14.87
2023-05-20T00:21:01.178Z,14.85
2023-05-20T00:22:07.183Z,14.84
2023-05-20T00:23:11.779Z,14.81
2023-05-20T00:24:15.206Z,14.77
2023-05-20T00:25:20.234Z,14.73
2023-05-20T00:26:23.958Z,14.67
2023-05-20T00:27:28.267Z,14.63
2023-05-20T00:28:32.076Z,14.62
2023-05-20T00:29:36.742Z,14.59
2023-05-20T00:30:41.577Z,14.57
2023-05-20T00:31:45.856Z,14.54
2023-05-20T00:32:50.303Z,14.52
2023-05-20T00:33:54.475Z,14.51
2023-05-20T00:34:59.927Z,14.47
2023-05-20T00:36:04.173Z,14.43
2023-05-20T00:37:08.265Z,14.43
2023-05-20T00:38:13.166Z,14.45
2023-05-20T00:39:17.180Z,14.45
2023-05-20T00:40:23.803Z,14.44
2023-05-20T00:41:27.985Z,14.44
2023-05-20T00:42:32.263Z,14.42
2023-05-20T00:43:35.836Z,14.44
2023-05-20T00:44:40.604Z,14.43
2023-05-20T00:45:44.526Z,14.42
2023-05-20T00:46:50.139Z,14.41
2023-05-20T00:47:53.796Z,14.40
2023-05-20T00:48:59.298Z,14.39
2023-05-20T00:50:04.775Z,14.40
2023-05-20T00:51:09.662Z,14.39
2023-05-20T00:52:13.190Z,14.37
2023-05-20T00:53:19.789Z,14.36
2023-05-20T00:54:23.913Z,14.34
2023-05-20T00:55:28.498Z,14.34
2023-05-20T00:56:32.383Z,14.34
2023-05-20T00:57:37.665Z,14.35
2023-05-20T00:58:42.016Z,14.34
2023-05-20T00:59:48.199Z,14.35
2023-05-20T01:00:51.927Z,14.36
2023-05-20T01:01:57.661Z,14.36
2023-05-20T01:03:01.333Z,14.35
2023-05-20T01:04:06.961Z,14.36
2023-05-20T01:05:12.082Z,14.35
2023-05-20T01:06:16.663Z,14.35
2023-05-20T01:07:21.008Z,14.34
2023-05-20T01:08:27.117Z,14.32
2023-05-20T01:09:33.547Z,14.32
2023-05-20T01:10:43.926Z,14.30
2023-05-20T01:11:53.263Z,14.29
2023-05-20T01:13:04.700Z,14.28
2023-05-20T01:14:09.488Z,14.26
2023-05-20T01:15:17.039Z,14.26
2023-05-20T01:16:23.478Z,14.28
2023-05-20T01:17:30.022Z,14.30
2023-05-20T01:18:35.015Z,14.30
2023-05-20T01:19:44.458Z,14.29
2023-05-20T01:20:53.621Z,14.29
2023-05-20T01:21:59.660Z,14.28
2023-05-20T01:23:06.064Z,14.29
2023-05-20T01:24:09.772Z,14.31
2023-05-20T01:25:15.019Z,14.30
2023-05-20T01:26:19.962Z,14.31
2023-05-20T01:27:25.104Z,14.31
2023-05-20T01:28:31.143Z,14.31
2023-05-20T01:29:37.239Z,14.32
2023-05-20T01:30:50.143Z,14.33
2023-05-20T01:31:59.288Z,14.33
2023-05-20T01:33:07.613Z,14.31
2023-05-20T01:34:13.052Z,14.29
2023-05-20T01:35:18.254Z,14.31
2023-05-20T01:36:25.460Z,14.30
2023-05-20T01:37:29.348Z,14.31
2023-05-20T01:38:36.582Z,14.34
2023-05-20T01:39:41.834Z,14.33
2023-05-20T01:40:47.675Z,14.33
2023-05-20T01:41:51.148Z,14.33
2023-05-20T01:42:57.371Z,14.32
2023-05-20T01:44:01.469Z,14.33
2023-05-20T01:45:07.886Z,14.32
2023-05-20T01:46:11.410Z,14.30
2023-05-20T01:47:16.421Z,14.29
2023-05-20T01:48:20.076Z,14.30
2023-05-20T01:49:24.626Z,14.30
2023-05-20T01:50:28.147Z,14.30
2023-05-20T01:51:33.827Z,14.27
2023-05-20T01:52:37.392Z,14.28
2023-05-20T01:53:43.786Z,14.29
2023-05-20T01:54:52.275Z,14.29
2023-05-20T01:55:56.341Z,14.28
2023-05-20T01:56:59.815Z,14.27
2023-05-20T01:58:05.019Z,14.26
2023-05-20T01:59:14.306Z,14.24
2023-05-20T02:00:20.002Z,14.22
2023-05-20T02:01:25.994Z,14.19
2023-05-20T02:02:32.534Z,14.18
2023-05-20T02:03:37.453Z,14.16
2023-05-20T02:04:48.136Z,14.15
2023-05-20T02:05:51.015Z,14.11
2023-05-20T02:06:54.734Z,14.08
2023-05-20T02:07:57.846Z,14.06
2023-05-20T02:09:04.640Z,14.05
2023-05-20T02:10:10.174Z,14.03
2023-05-20T02:11:15.172Z,14.03
2023-05-20T02:12:19.012Z,14.02
2023-05-20T02:13:24.359Z,14.03
2023-05-20T02:14:27.718Z,14.03
2023-05-20T02:15:32.317Z,14.04
2023-05-20T02:16:37.699Z,14.04
2023-05-20T02:17:43.808Z,14.02
2023-05-20T02:18:48.095Z,14.01
2023-05-20T02:19:52.371Z,14.02
2023-05-20T02:20:56.631Z,14.03
2023-05-20T02:22:00.175Z,14.03
2023-05-20T02:23:06.099Z,14.05
2023-05-20T02:24:10.966Z,14.05
2023-05-20T02:25:15.006Z,14.06
2023-05-20T02:26:18.543Z,14.07
2023-05-20T02:27:22.989Z,14.10
2023-05-20T02:28:26.616Z,14.09
2023-05-20T02:29:31.522Z,14.10
2023-05-20T02:30:35.014Z,14.12
2023-05-20T02:31:39.742Z,14.12
2023-05-20T02:32:42.732Z,14.13
2023-05-20T02:33:47.315Z,14.12
2023-05-20T02:34:51.709Z,14.14
2023-05-20T02:35:54.707Z,14.14
2023-05-20T02:36:59.232Z,14.15
2023-05-20T02:38:02.331Z,14.16
2023-05-20T02:39:06.818Z,14.17
2023-05-20T02:40:12.382Z,14.17
2023-05-20T02:41:16.516Z,14.18
2023-05-20T02:42:19.534Z,14.17
2023-05-20T02:43:23.549Z,14.18
2023-05-20T02:44:26.847Z,14.18
2023-05-20T02:45:31.433Z,14.19
2023-05-20T02:46:35.058Z,14.19
2023-05-20T02:47:39.820Z,14.20
2023-05-20T02:48:43.035Z,14.18
2023-05-20T02:49:48.047Z,14.18
2023-05-20T02:50:51.343Z,14.17
2023-05-20T02:51:55.547Z,14.19
2023-05-20T02:52:59.364Z,14.18
2023-05-20T02:54:03.983Z,14.18
2023-05-20T02:55:08.533Z,14.18
2023-05-20T02:56:14.464Z,14.17
2023-05-20T02:57:17.853Z,14.18
2023-05-20T02:58:26.931Z,14.17
2023-05-20T02:59:30.348Z,14.18
2023-05-20T03:01:18.805Z,14.21
2023-05-20T03:07:08.500Z,14.01
2023-05-20T03:09:00.611Z,14.01
2023-05-20T03:10:45.421Z,14.00
2023-05-20T03:12:00.067Z,13.99
2023-05-20T03:13:43.747Z,14.03
2023-05-20T03:15:25.434Z,14.02
2023-05-20T03:16:30.335Z,14.01
2023-05-20T03:17:34.874Z,14.04
2023-05-20T03:18:37.799Z,14.06
2023-05-20T03:19:42.544Z,14.09
2023-05-20T03:20:47.378Z,14.12
2023-05-20T03:21:52.249Z,14.14
2023-05-20T03:23:00.602Z,14.16
2023-05-20T03:24:06.391Z,14.16
2023-05-20T03:25:11.943Z,14.18
2023-05-20T03:26:16.843Z,14.20
2023-05-20T03:27:22.321Z,14.21
2023-05-20T03:28:29.201Z,14.22
2023-05-20T03:29:44.929Z,14.22
2023-05-20T03:30:50.301Z,14.22
2023-05-20T03:31:54.875Z,14.22
2023-05-20T03:33:06.678Z,14.23
2023-05-20T03:34:10.389Z,14.21
2023-05-20T03:35:14.917Z,14.21
2023-05-20T03:36:19.953Z,14.21
2023-05-20T03:37:23.503Z,14.22
2023-05-20T03:38:28.285Z,14.22
2023-05-20T03:39:32.116Z,14.23
2023-05-20T03:40:36.577Z,14.23
2023-05-20T03:41:40.729Z,14.24
2023-05-20T03:42:46.469Z,14.26
2023-05-20T03:43:49.870Z,14.26
2023-05-20T03:44:54.489Z,14.27
2023-05-20T03:45:57.741Z,14.27
2023-05-20T03:47:02.359Z,14.28
2023-05-20T03:48:06.210Z,14.29
2023-05-20T03:49:16.852Z,14.29
2023-05-20T03:50:19.986Z,14.28
2023-05-20T03:51:24.625Z,14.29
2023-05-20T03:52:27.682Z,14.28
2023-05-20T03:53:32.330Z,14.29
2023-05-20T03:54:36.845Z,14.29
2023-05-20T03:55:41.287Z,14.28
2023-05-20T03:56:45.155Z,14.29
2023-05-20T03:57:50.604Z,14.30
2023-05-20T03:58:54.128Z,14.30
2023-05-20T03:59:58.604Z,14.31
2023-05-20T04:01:01.915Z,14.29
2023-05-20T04:02:08.918Z,14.31
2023-05-20T04:03:13.013Z,14.29
2023-05-20T04:04:17.447Z,14.30
2023-05-20T04:05:34.787Z,14.30
2023-05-20T04:07:03.123Z,14.25
2023-05-20T04:08:11.075Z,14.25
2023-05-20T04:09:22.933Z,14.26
2023-05-20T04:10:26.456Z,14.25
2023-05-20T04:11:30.679Z,14.26
2023-05-20T04:12:36.389Z,14.26
2023-05-20T04:13:42.432Z,14.28
2023-05-20T04:14:46.049Z,14.29
2023-05-20T04:15:52.156Z,14.28
2023-05-20T04:16:56.636Z,14.28
2023-05-20T04:18:02.039Z,14.28
2023-05-20T04:19:05.678Z,14.28
2023-05-20T04:20:12.379Z,14.28
2023-05-20T04:21:23.325Z,14.31
2023-05-20T04:22:28.009Z,14.30
2023-05-20T04:23:32.088Z,14.30
2023-05-20T04:24:38.868Z,14.31
2023-05-20T04:25:43.958Z,14.32
2023-05-20T04:26:53.295Z,14.31
2023-05-20T04:28:02.370Z,14.32
2023-05-20T04:29:08.766Z,14.32
2023-05-20T04:30:14.135Z,14.31
2023-05-20T04:31:21.678Z,14.34
2023-05-20T04:32:25.606Z,14.34
2023-05-20T04:33:31.514Z,14.34
2023-05-20T04:34:37.723Z,14.35
2023-05-20T04:35:43.574Z,14.35
2023-05-20T04:36:49.860Z,14.35
2023-05-20T04:37:56.180Z,14.37
2023-05-20T04:38:59.303Z,14.37
2023-05-20T04:40:06.733Z,14.39
2023-05-20T04:41:15.166Z,14.38
2023-05-20T04:42:22.640Z,14.39
2023-05-20T04:43:25.687Z,14.39
2023-05-20T04:44:46.680Z,14.41
2023-05-20T04:45:50.366Z,14.39
2023-05-20T04:46:54.884Z,14.41
2023-05-20T04:47:59.451Z,14.41
2023-05-20T04:49:05.076Z,14.42
2023-05-20T04:50:11.251Z,14.43
2023-05-20T04:51:16.638Z,14.44
2023-05-20T04:52:21.816Z,14.45
2023-05-20T04:53:26.855Z,14.47
2023-05-20T04:54:30.264Z,14.46
2023-05-20T04:55:38.366Z,14.46
2023-05-20T04:56:41.896Z,14.47
2023-05-20T04:57:46.921Z,14.49
2023-05-20T04:58:50.164Z,14.48
2023-05-20T04:59:59.564Z,14.51
2023-05-20T05:01:03.606Z,14.50
2023-05-20T05:02:08.700Z,14.52
2023-05-20T05:03:13.347Z,14.53
2023-05-20T05:04:18.604Z,14.50
2023-05-20T05:05:30.115Z,14.51
2023-05-20T05:06:35.964Z,14.48
2023-05-20T05:07:40.367Z,14.47
2023-05-20T05:08:44.571Z,14.46
2023-05-20T05:09:48.102Z,14.46
2023-05-20T05:10:52.404Z,14.45
2023-05-20T05:11:55.924Z,14.45
2023-05-20T05:13:01.473Z,14.47
2023-05-20T05:14:05.060Z,14.44
2023-05-20T05:15:11.735Z,14.45
2023-05-20T05:16:15.121Z,14.44
2023-05-20T05:17:19.972Z,14.43
2023-05-20T05:18:23.342Z,14.40
2023-05-20T05:19:27.431Z,14.39
2023-05-20T05:20:30.803Z,14.38
2023-05-20T05:21:35.531Z,14.37
2023-05-20T05:22:40.633Z,14.38
2023-05-20T05:23:45.515Z,14.37
2023-05-20T05:25:26.868Z,14.35
2023-05-20T05:26:38.270Z,14.28
2023-05-20T05:28:02.166Z,14.25
2023-05-20T05:29:11.799Z,14.21
2023-05-20T05:30:22.890Z,14.20
2023-05-20T05:31:27.909Z,14.18
2023-05-20T05:32:31.240Z,14.18
2023-05-20T05:33:36.771Z,14.19
2023-05-20T05:34:40.278Z,14.20
2023-05-20T05:35:45.745Z,14.20
2023-05-20T05:36:48.970Z,14.18
2023-05-20T05:37:53.780Z,14.18
2023-05-20T05:38:57.378Z,14.20
2023-05-20T05:40:01.831Z,14.20
2023-05-20T05:41:07.667Z,14.19
2023-05-20T05:42:11.722Z,14.21
2023-05-20T05:43:16.597Z,14.19
2023-05-20T05:44:39.187Z,14.21
2023-05-20T05:45:49.659Z,14.19
2023-05-20T05:46:53.041Z,14.18
2023-05-20T05:47:57.599Z,14.21
2023-05-20T05:49:01.000Z,14.22
2023-05-20T05:50:06.411Z,14.24
2023-05-20T05:51:09.706Z,14.25
2023-05-20T05:52:13.728Z,14.28
2023-05-20T05:53:18.906Z,14.30
2023-05-20T05:54:26.466Z,14.31
2023-05-20T05:55:30.084Z,14.34
2023-05-20T05:56:34.994Z,14.34
2023-05-20T05:57:38.514Z,14.37
2023-05-20T05:58:43.339Z,14.39
2023-05-20T05:59:46.762Z,14.38
2023-05-20T06:00:55.263Z,14.39
2023-05-20T06:01:58.837Z,14.42
2023-05-20T06:03:03.397Z,14.43
2023-05-20T06:04:07.498Z,14.44
2023-05-20T06:05:12.538Z,14.46
2023-05-20T06:06:17.685Z,14.48
2023-05-20T06:07:21.252Z,14.50
2023-05-20T06:08:31.676Z,14.49
2023-05-20T06:09:37.320Z,14.51
2023-05-20T06:10:41.770Z,14.50
2023-05-20T06:11:48.889Z,14.51
2023-05-20T06:12:55.160Z,14.51
2023-05-20T06:13:59.116Z,14.52
2023-05-20T06:15:04.020Z,14.53
2023-05-20T06:16:09.019Z,14.53
2023-05-20T06:17:15.693Z,14.54
2023-05-20T06:18:19.371Z,14.53
2023-05-20T06:19:24.154Z,14.53
2023-05-20T06:20:27.823Z,14.54
2023-05-20T06:21:33.872Z,14.54
2023-05-20T06:22:37.237Z,14.53
2023-05-20T06:23:41.023Z,14.55
2023-05-20T06:24:44.017Z,14.54
2023-05-20T06:25:48.822Z,14.54
2023-05-20T06:26:52.750Z,14.56
2023-05-20T06:27:57.178Z,14.56
2023-05-20T06:29:02.142Z,14.56
2023-05-20T06:30:06.798Z,14.55
2023-05-20T06:31:12.681Z,14.55
2023-05-20T06:32:16.465Z,14.54
2023-05-20T06:33:32.953Z,14.53
2023-05-20T06:34:36.289Z,14.51
2023-05-20T06:35:41.226Z,14.52
2023-05-20T06:36:44.531Z,14.53
2023-05-20T06:37:48.964Z,14.53
2023-05-20T06:39:01.104Z,14.54
2023-05-20T06:40:06.018Z,14.56
2023-05-20T06:41:09.252Z,14.57
2023-05-20T06:42:13.030Z,14.58
2023-05-20T06:43:16.334Z,14.59
2023-05-20T06:44:32.083Z,14.59
2023-05-20T06:45:44.154Z,14.59
2023-05-20T06:46:48.901Z,14.60
2023-05-20T06:47:54.602Z,14.58
2023-05-20T06:48:59.776Z,14.58
2023-05-20T06:50:03.350Z,14.59
2023-05-20T06:51:09.808Z,14.62
2023-05-20T06:52:13.256Z,14.62
2023-05-20T06:53:20.929Z,14.63
2023-05-20T06:54:26.813Z,14.64
2023-05-20T06:55:31.382Z,14.65
2023-05-20T06:56:34.975Z,14.66
2023-05-20T06:57:39.578Z,14.71
2023-05-20T06:58:56.867Z,14.73
2023-05-20T07:00:00.763Z,14.74
2023-05-20T07:01:09.813Z,14.75
2023-05-20T07:02:14.739Z,14.79
2023-05-20T07:03:19.446Z,14.80
2023-05-20T07:04:36.304Z,14.81
2023-05-20T07:05:43.712Z,14.81
2023-05-20T07:06:47.597Z,14.82
2023-05-20T07:07:52.169Z,14.84
2023-05-20T07:08:55.631Z,14.85
2023-05-20T07:10:00.300Z,14.86
2023-05-20T07:11:04.335Z,14.88
2023-05-20T07:12:09.552Z,14.91
2023-05-20T07:13:13.828Z,14.92
2023-05-20T07:14:19.006Z,14.94
2023-05-20T07:15:22.192Z,14.96
2023-05-20T07:16:26.732Z,14.97
2023-05-20T07:17:32.054Z,14.99
2023-05-20T07:18:36.959Z,15.00
2023-05-20T07:19:40.888Z,15.02
2023-05-20T07:20:45.854Z,15.04
2023-05-20T07:21:51.093Z,15.05
2023-05-20T07:22:54.780Z,15.06
2023-05-20T07:23:59.260Z,15.06
2023-05-20T07:25:05.894Z,15.08
2023-05-20T07:26:10.179Z,15.09
2023-05-20T07:27:13.304Z,15.11
2023-05-20T07:28:18.822Z,15.13
2023-05-20T07:29:27.883Z,15.14
2023-05-20T07:30:31.507Z,15.15
2023-05-20T07:31:36.799Z,15.16
2023-05-20T07:32:41.998Z,15.17
2023-05-20T07:33:47.136Z,15.18
2023-05-20T07:34:53.168Z,15.18
2023-05-20T07:35:56.496Z,15.17
2023-05-20T07:37:01.650Z,15.18
2023-05-20T07:38:06.146Z,15.19
2023-05-20T07:39:15.004Z,15.20
2023-05-20T07:40:19.487Z,15.22
2023-05-20T07:41:30.914Z,15.22
2023-05-20T07:42:35.324Z,15.22
2023-05-20T07:43:39.029Z,15.22
2023-05-20T07:44:43.685Z,15.19
2023-05-20T07:45:47.026Z,15.14
2023-05-20T07:46:51.768Z,15.13
2023-05-20T07:47:56.826Z,15.10
2023-05-20T07:49:01.500Z,15.10
2023-05-20T07:50:05.331Z,15.09
2023-05-20T07:51:09.418Z,15.09
2023-05-20T07:52:13.820Z,15.10
2023-05-20T07:53:19.918Z,15.09
2023-05-20T07:54:26.144Z,15.10
2023-05-20T07:55:29.592Z,15.12
2023-05-20T07:56:35.160Z,15.11
2023-05-20T07:57:38.726Z,15.11
2023-05-20T07:58:44.071Z,15.12
2023-05-20T07:59:48.019Z,15.13
2023-05-20T08:00:52.614Z,15.13
2023-05-20T08:01:57.089Z,15.12
2023-05-20T08:03:03.254Z,15.10
2023-05-20T08:04:06.826Z,15.10
2023-05-20T08:05:11.773Z,15.11
2023-05-20T08:06:16.050Z,15.13
2023-05-20T08:07:20.868Z,15.15
2023-05-20T08:08:24.728Z,15.11
2023-05-20T08:09:33.740Z,15.14
2023-05-20T08:10:38.894Z,15.12
2023-05-20T08:11:47.508Z,15.16
2023-05-20T08:13:14.870Z,15.15
2023-05-20T08:14:20.157Z,15.12
2023-05-20T08:15:24.428Z,15.11
2023-05-20T08:16:28.530Z,15.13
2023-05-20T08:17:33.451Z,15.16
2023-05-20T08:18:39.718Z,15.17
2023-05-20T08:19:42.848Z,15.16
2023-05-20T08:20:46.915Z,15.19
2023-05-20T08:21:50.041Z,15.18
2023-05-20T08:22:54.259Z,15.18
2023-05-20T08:23:59.001Z,15.18
2023-05-20T08:25:01.773Z,15.16
2023-05-20T08:26:06.167Z,15.16
2023-05-20T08:27:09.919Z,15.13
2023-05-20T08:28:14.668Z,15.15
2023-05-20T08:29:25.093Z,15.13
2023-05-20T08:30:32.337Z,15.12
2023-05-20T08:31:38.317Z,15.11
2023-05-20T08:32:43.045Z,15.10
2023-05-20T08:33:48.736Z,15.13
2023-05-20T08:34:53.430Z,15.13
2023-05-20T08:35:58.016Z,15.15
2023-05-20T08:37:01.957Z,15.13
2023-05-20T08:38:06.546Z,15.17
2023-05-20T08:39:10.490Z,15.17
2023-05-20T08:40:16.023Z,15.16
2023-05-20T08:41:29.052Z,15.18
2023-05-20T08:42:34.536Z,15.18
2023-05-20T08:43:38.570Z,15.17
2023-05-20T08:44:44.466Z,15.16
2023-05-20T08:45:47.807Z,15.16
2023-05-20T08:46:53.493Z,15.18
2023-05-20T08:47:58.929Z,15.18
2023-05-20T08:49:07.512Z,15.21
2023-05-20T08:50:12.847Z,15.22
2023-05-20T08:51:20.343Z,15.22
2023-05-20T08:52:24.581Z,15.22
2023-05-20T08:53:32.064Z,15.23
2023-05-20T08:54:45.500Z,15.22
2023-05-20T08:55:54.760Z,15.20
2023-05-20T08:57:00.713Z,15.19
2023-05-20T08:58:05.344Z,15.19
2023-05-20T08:59:11.844Z,15.19
2023-05-20T09:00:18.694Z,15.18
2023-05-20T09:01:32.471Z,15.18
2023-05-20T09:02:40.562Z,15.19
2023-05-20T09:03:45.728Z,15.20
2023-05-20T09:04:52.724Z,15.20
2023-05-20T09:06:05.265Z,15.23
2023-05-20T09:07:10.129Z,15.24
2023-05-20T09:08:15.690Z,15.24
2023-05-20T09:10:49.663Z,15.31
2023-05-20T09:11:54.472Z,15.34
2023-05-20T09:12:58.605Z,15.38
2023-05-20T09:14:03.228Z,15.43
2023-05-20T09:15:08.277Z,15.50
2023-05-20T09:16:13.775Z,15.55
2023-05-20T09:17:22.957Z,15.59
2023-05-20T09:18:31.636Z,15.63
2023-05-20T09:19:35.167Z,15.70
2023-05-20T09:20:41.761Z,15.78
2023-05-20T09:21:48.439Z,15.87
2023-05-20T09:22:54.697Z,15.93
2023-05-20T09:23:59.856Z,16.04
2023-05-20T09:25:08.157Z,16.16
2023-05-20T09:26:13.766Z,16.34
2023-05-20T09:27:18.898Z,16.51
2023-05-20T09:28:25.673Z,16.73
2023-05-20T09:29:35.845Z,16.92
2023-05-20T09:30:39.355Z,17.09
2023-05-20T09:31:45.016Z,17.24
2023-05-20T09:32:54.379Z,17.36
2023-05-20T09:33:59.224Z,17.47
2023-05-20T09:35:04.519Z,17.55
2023-05-20T09:36:12.806Z,17.66
2023-05-20T09:37:30.484Z,17.73
2023-05-20T09:38:39.327Z,17.81
2023-05-20T09:39:51.169Z,17.87
2023-05-20T09:40:57.037Z,17.90
2023-05-20T09:42:07.796Z,17.97
2023-05-20T09:43:13.585Z,18.02
2023-05-20T09:44:38.601Z,18.10
2023-05-20T09:45:43.986Z,18.14
2023-05-20T09:46:49.074Z,18.18
2023-05-20T09:47:54.596Z,18.25
2023-05-20T09:48:59.288Z,18.32
2023-05-20T09:50:04.673Z,18.38
2023-05-20T09:51:11.580Z,18.45
2023-05-20T09:52:20.693Z,18.50
2023-05-20T09:53:45.327Z,18.58
2023-05-20T09:57:23.826Z,18.62
2023-05-20T09:58:44.686Z,18.65
2023-05-20T10:00:36.349Z,18.65
2023-05-20T10:01:41.607Z,18.59
2023-05-20T10:02:48.036Z,18.62
2023-05-20T10:03:54.377Z,18.64
2023-05-20T10:05:01.459Z,18.70
2023-05-20T10:06:28.171Z,18.78
2023-05-20T10:07:49.862Z,18.87
2023-05-20T10:09:14.118Z,18.95
2023-05-20T10:10:34.187Z,18.99
2023-05-20T10:11:49.589Z,19.04
2023-05-20T10:13:05.857Z,19.08
2023-05-20T10:14:33.410Z,19.05
2023-05-20T10:15:48.002Z,19.02
2023-05-20T10:17:00.296Z,19.00
2023-05-20T10:18:13.246Z,19.02
2023-05-20T10:19:30.638Z,19.08
2023-05-20T10:20:34.375Z,19.15
2023-05-20T10:21:41.108Z,19.21
2023-05-20T10:22:45.640Z,19.24
2023-05-20T10:23:50.438Z,19.27
2023-05-20T10:25:01.121Z,19.31
2023-05-20T10:26:07.893Z,19.29
2023-05-20T10:27:15.086Z,19.30
2023-05-20T10:28:26.283Z,19.31
2023-05-20T10:29:45.473Z,19.27
2023-05-20T10:30:51.493Z,19.30
2023-05-20T10:31:56.401Z,19.34
2023-05-20T10:33:07.408Z,19.38
2023-05-20T10:34:18.599Z,19.40
2023-05-20T10:35:27.938Z,19.39
2023-05-20T10:36:32.450Z,19.39
2023-05-20T10:37:45.966Z,19.36
2023-05-20T10:38:54.084Z,19.34
2023-05-20T10:40:12.481Z,19.30
2023-05-20T10:41:29.620Z,19.29
2023-05-20T10:42:34.933Z,19.27
2023-05-20T10:43:38.495Z,19.27
2023-05-20T10:44:44.614Z,19.27
2023-05-20T10:45:52.228Z,19.25
2023-05-20T10:48:21.900Z,19.19
2023-05-20T10:49:47.301Z,19.15
2023-05-20T10:50:51.122Z,19.12
2023-05-20T10:51:55.774Z,19.11
2023-05-20T10:53:25.614Z,19.10
2023-05-20T10:54:37.021Z,19.07
2023-05-20T10:55:43.329Z,19.05
2023-05-20T10:56:53.169Z,19.06
2023-05-20T10:57:58.000Z,19.06
2023-05-20T10:59:03.600Z,19.04
2023-05-20T11:00:11.136Z,19.05
2023-05-20T11:01:27.927Z,19.03
2023-05-20T11:02:35.835Z,19.02
2023-05-20T11:03:41.439Z,18.98
2023-05-20T11:04:46.789Z,18.99
2023-05-20T11:05:52.039Z,18.99
2023-05-20T11:06:57.680Z,18.99
2023-05-20T11:08:13.977Z,18.99
2023-05-20T11:09:31.360Z,18.98
2023-05-20T11:10:37.647Z,18.98
2023-05-20T11:11:43.663Z,19.01
2023-05-20T11:12:48.628Z,19.01
2023-05-20T11:13:54.182Z,18.99
2023-05-20T11:14:57.524Z,19.01
2023-05-20T11:16:04.904Z,19.02
2023-05-20T11:17:09.532Z,19.02
2023-05-20T11:18:16.952Z,19.03
2023-05-20T11:19:21.912Z,19.03
2023-05-20T11:20:28.088Z,19.06
2023-05-20T11:23:16.105Z,19.11
2023-05-20T11:24:27.435Z,19.15
2023-05-20T11:25:41.411Z,19.19
2023-05-20T11:26:45.542Z,19.26
2023-05-20T11:27:51.325Z,19.34
2023-05-20T11:28:55.352Z,19.40
2023-05-20T11:30:00.487Z,19.46
2023-05-20T11:31:05.293Z,19.54
2023-05-20T11:32:11.104Z,19.60
2023-05-20T11:33:17.206Z,19.66
2023-05-20T11:34:26.407Z,19.70
2023-05-20T11:35:32.550Z,19.74
2023-05-20T11:36:42.383Z,19.76
2023-05-20T11:37:46.438Z,19.77
2023-05-20T11:38:54.474Z,19.81
2023-05-20T11:40:08.630Z,19.77
2023-05-20T11:41:13.191Z,19.77
2023-05-20T11:42:16.555Z,19.76
2023-05-20T11:43:22.458Z,19.75
2023-05-20T11:44:27.649Z,19.76
2023-05-20T11:45:42.281Z,19.75
2023-05-20T11:46:49.157Z,19.74
2023-05-20T11:48:03.988Z,19.72
2023-05-20T11:49:09.744Z,19.70
2023-05-20T11:50:18.948Z,19.66
2023-05-20T11:51:28.904Z,19.62
2023-05-20T11:52:35.675Z,19.57
2023-05-20T11:53:43.217Z,19.52
2023-05-20T11:54:54.774Z,19.49
2023-05-20T11:56:00.729Z,19.43
2023-05-20T11:57:07.119Z,19.40
2023-05-20T11:58:11.551Z,19.36
2023-05-20T11:59:17.127Z,19.33
2023-05-20T12:00:21.668Z,19.29
2023-05-20T12:01:37.826Z,19.23
2023-05-20T12:02:41.609Z,19.19
2023-05-20T12:03:46.285Z,19.16
2023-05-20T12:04:50.206Z,19.16
2023-05-20T12:05:55.804Z,19.13
2023-05-20T12:06:59.301Z,19.12
2023-05-20T12:08:05.234Z,19.10
2023-05-20T12:09:10.329Z,19.09
2023-05-20T12:10:17.962Z,19.09
2023-05-20T12:11:22.287Z,19.07
2023-05-20T12:12:27.118Z,19.05
2023-05-20T12:13:35.568Z,19.03
2023-05-20T12:14:40.119Z,19.00
2023-05-20T12:15:45.044Z,18.95
2023-05-20T12:16:48.357Z,18.94
2023-05-20T12:17:54.489Z,18.90
2023-05-20T12:18:57.555Z,18.88
2023-05-20T12:20:02.821Z,18.85
2023-05-20T12:21:08.039Z,18.83
2023-05-20T12:22:13.030Z,18.80
2023-05-20T12:23:16.469Z,18.75
2023-05-20T12:24:20.720Z,18.72
2023-05-20T12:25:32.668Z,18.68
2023-05-20T12:26:36.730Z,18.65
2023-05-20T12:27:40.674Z,18.62
2023-05-20T12:28:43.372Z,18.60
2023-05-20T12:29:48.593Z,18.58
2023-05-20T12:30:51.858Z,18.58
2023-05-20T12:31:57.163Z,18.57
2023-05-20T12:33:00.334Z,18.56
2023-05-20T12:34:06.009Z,18.58
2023-05-20T12:35:10.589Z,18.60
2023-05-20T12:36:15.222Z,18.64
2023-05-20T12:37:20.245Z,18.66
2023-05-20T12:38:25.123Z,18.71
2023-05-20T12:39:28.540Z,18.75
2023-05-20T12:40:35.399Z,18.79
2023-05-20T12:41:39.344Z,18.82
2023-05-20T12:42:43.712Z,18.85
2023-05-20T12:43:46.982Z,18.87
2023-05-20T12:44:51.656Z,18.89
2023-05-20T12:45:55.566Z,18.91
2023-05-20T12:47:01.148Z,18.92
2023-05-20T12:48:10.038Z,18.95
2023-05-20T12:49:15.050Z,18.95
2023-05-20T12:50:20.092Z,18.93
2023-05-20T12:51:25.300Z,18.96
2023-05-20T12:52:30.620Z,18.98
2023-05-20T12:53:35.981Z,18.98
2023-05-20T12:54:39.663Z,18.98
2023-05-20T12:55:46.082Z,18.96
2023-05-20T12:56:50.637Z,18.94
2023-05-20T12:57:57.795Z,18.92
2023-05-20T12:59:02.765Z,18.92
2023-05-20T13:00:07.981Z,18.90
2023-05-20T13:01:20.290Z,18.87
2023-05-20T13:02:25.033Z,18.88
2023-05-20T13:03:29.500Z,18.88
2023-05-20T13:04:35.721Z,18.89
2023-05-20T13:05:42.716Z,18.90
2023-05-20T13:06:48.125Z,18.91
2023-05-20T13:07:54.911Z,18.93
2023-05-20T13:08:59.742Z,18.94
2023-05-20T13:10:13.683Z,18.97
2023-05-20T13:11:20.533Z,18.97
2023-05-20T13:12:26.365Z,18.98
2023-05-20T13:13:31.734Z,18.99
2023-05-20T13:14:36.527Z,19.02
2023-05-20T13:15:44.004Z,19.05
2023-05-20T13:16:48.223Z,19.05
2023-05-20T13:17:56.358Z,19.07
2023-05-20T13:19:05.154Z,19.07
2023-05-20T13:20:14.135Z,19.09
2023-05-20T13:21:18.893Z,19.08
2023-05-20T13:22:24.475Z,19.09
2023-05-20T13:23:29.825Z,19.11
2023-05-20T13:24:36.509Z,19.12
2023-05-20T13:25:41.672Z,19.13
2023-05-20T13:26:50.494Z,19.14
2023-05-20T13:27:54.882Z,19.14
2023-05-20T13:29:00.329Z,19.17
2023-05-20T13:30:08.225Z,19.18
2023-05-20T13:31:12.753Z,19.18
2023-05-20T13:32:19.382Z,19.19
2023-05-20T13:33:24.525Z,19.17
2023-05-20T13:34:34.224Z,19.18
2023-05-20T13:35:38.417Z,19.17
2023-05-20T13:36:44.681Z,19.18
2023-05-20T13:37:50.999Z,19.16
2023-05-20T13:38:57.017Z,19.15
2023-05-20T13:40:04.370Z,19.15
2023-05-20T13:41:10.295Z,19.16
2023-05-20T13:42:17.292Z,19.15
2023-05-20T13:43:21.419Z,19.13
2023-05-20T13:44:27.164Z,19.14
2023-05-20T13:45:31.980Z,19.14
2023-05-20T13:46:38.655Z,19.14
2023-05-20T13:47:43.686Z,19.16
2023-05-20T13:48:48.948Z,19.17
2023-05-20T13:49:53.744Z,19.19
2023-05-20T13:50:58.968Z,19.23
2023-05-20T13:52:03.714Z,19.25
2023-05-20T13:53:13.258Z,19.27
2023-05-20T13:54:18.867Z,19.30
2023-05-20T13:55:25.185Z,19.33
2023-05-20T13:56:29.525Z,19.35
2023-05-20T13:57:36.487Z,19.37
2023-05-20T13:58:41.410Z,19.38
2023-05-20T13:59:47.965Z,19.41
2023-05-20T14:00:52.729Z,19.41
2023-05-20T14:02:01.696Z,19.44
2023-05-20T14:03:10.374Z,19.46
2023-05-20T14:04:17.857Z,19.46
2023-05-20T14:05:27.744Z,19.49
2023-05-20T14:06:48.781Z,19.50
2023-05-20T14:07:52.564Z,19.52
2023-05-20T14:08:59.949Z,19.56
2023-05-20T14:12:01.127Z,19.57
2023-05-20T14:13:12.516Z,19.59
2023-05-20T14:14:23.325Z,19.60
2023-05-20T14:27:28.401Z,19.18
2023-05-20T14:40:59.369Z,18.70
2023-05-20T14:56:37.936Z,18.39
2023-05-20T14:58:27.552Z,18.41
2023-05-20T15:52:36.607Z,18.39
2023-05-20T15:53:40.751Z,18.43
2023-05-20T15:54:44.355Z,18.46
2023-05-20T15:55:48.124Z,18.48
2023-05-20T15:56:50.713Z,18.50
2023-05-20T15:57:54.398Z,18.51
2023-05-20T15:58:58.120Z,18.52
2023-05-20T16:00:01.606Z,18.53
2023-05-20T16:01:11.451Z,18.50
2023-05-20T16:02:14.787Z,18.51
2023-05-20T16:03:17.815Z,18.51
2023-05-20T16:04:21.451Z,18.53